Time;durP1;ratioP1;P1;durP2;ratioP2;P2;SDS_P1;SDS_P2;PMS_P1;PMS_P2;Temp;Humidity;BMP_temperature;BMP_pressure;BME280_temperature;BME280_humidity;BME280_pressure;Samples;Min_cycle;Max_cycle;Signal;HPM_P1;HPM_P2
2022/05/04 00:01:46;;;;;;;3.05;1.10;;;8.40;99.90;;;;;;5071938;28;20093;-72
2022/05/04 00:04:12;;;;;;;4.07;1.23;;;8.10;99.90;;;;;;5071927;28;20036;-72
2022/05/04 00:06:38;;;;;;;1.95;0.63;;;8.10;99.90;;;;;;5055401;28;20028;-72
2022/05/04 00:09:04;;;;;;;1.48;0.55;;;8.10;99.90;;;;;;5072137;28;20131;-72
2022/05/04 00:11:30;;;;;;;1.92;0.50;;;8.00;99.90;;;;;;5071827;28;20048;-71
2022/05/04 00:13:56;;;;;;;0.90;0.68;;;8.10;99.90;;;;;;5038581;28;20040;-71
2022/05/04 00:16:22;;;;;;;6.38;1.13;;;8.10;99.90;;;;;;5055203;28;20492;-72
2022/05/04 00:18:48;;;;;;;2.40;0.77;;;8.10;99.90;;;;;;5071670;28;20041;-71
2022/05/04 00:21:13;;;;;;;4.13;0.60;;;8.00;99.90;;;;;;5054503;28;20037;-71
2022/05/04 00:23:39;;;;;;;0.65;0.60;;;8.00;99.90;;;;;;5071593;28;20033;-71
2022/05/04 00:26:05;;;;;;;1.85;0.73;;;8.00;99.90;;;;;;5054997;28;20086;-72
2022/05/04 00:28:31;;;;;;;1.85;1.15;;;7.90;99.90;;;;;;5055003;28;20041;-72
2022/05/04 00:30:57;;;;;;;0.70;0.65;;;8.00;99.90;;;;;;5071545;28;20070;-72
2022/05/04 00:33:22;;;;;;;1.92;0.73;;;8.10;99.90;;;;;;5071532;28;20132;-72
2022/05/04 00:35:48;;;;;;;0.60;0.55;;;8.00;99.90;;;;;;5071771;28;20068;-71
2022/05/04 00:38:14;;;;;;;0.47;0.30;;;8.00;99.90;;;;;;5054977;28;20044;-72
2022/05/04 00:40:39;;;;;;;3.15;0.68;;;9.00;99.90;;;;;;5071467;28;20095;-73
2022/05/04 00:43:19;;;;;;;0.77;0.57;;;8.00;99.90;;;;;;5054817;28;20043;-72
2022/05/04 00:45:45;;;;;;;1.25;0.88;;;7.90;99.90;;;;;;5071505;28;20046;-72
2022/05/04 00:48:10;;;;;;;0.40;0.40;;;8.00;99.90;;;;;;5054771;28;20052;-73
2022/05/04 00:50:36;;;;;;;0.52;0.52;;;7.70;99.90;;;;;;5055020;28;20044;-73
2022/05/04 00:53:02;;;;;;;1.98;0.68;;;8.00;99.90;;;;;;5054956;28;20047;-73
2022/05/04 00:55:28;;;;;;;3.22;0.88;;;7.90;99.90;;;;;;5071359;28;20040;-73
2022/05/04 01:00:39;;;;;;;2.75;0.57;;;8.00;99.90;;;;;;5071662;28;20055;-73
2022/05/04 01:03:04;;;;;;;1.80;0.70;;;7.90;99.90;;;;;;5071373;28;20041;-73
2022/05/04 01:05:30;;;;;;;3.40;0.80;;;7.90;99.90;;;;;;5071356;28;20049;-72
2022/05/04 01:07:56;;;;;;;2.08;0.70;;;8.50;99.90;;;;;;5071248;28;20182;-73
2022/05/04 01:10:22;;;;;;;1.52;0.90;;;8.00;99.90;;;;;;5054620;28;20040;-73
2022/05/04 01:12:48;;;;;;;1.02;0.50;;;7.90;99.90;;;;;;5071232;28;20041;-73
2022/05/04 01:15:15;;;;;;;4.80;0.68;;;7.90;99.90;;;;;;5054663;28;20044;-73
2022/05/04 01:17:41;;;;;;;5.35;0.73;;;7.90;99.90;;;;;;5071076;28;20434;-73
2022/05/04 01:20:08;;;;;;;2.95;1.00;;;7.90;99.90;;;;;;5054449;28;20086;-72
2022/05/04 01:22:37;;;;;;;1.75;1.33;;;7.90;99.90;;;;;;5071394;28;20402;-72
2022/05/04 01:25:04;;;;;;;0.60;0.60;;;7.90;99.90;;;;;;5054511;28;20043;-71
2022/05/04 01:27:29;;;;;;;7.82;1.42;;;7.90;99.90;;;;;;5054621;28;20051;-71
2022/05/04 01:29:55;;;;;;;1.73;0.52;;;7.90;99.90;;;;;;5071047;28;20044;-72
2022/05/04 01:32:21;;;;;;;0.63;0.35;;;7.90;99.90;;;;;;5073363;28;20132;-72
2022/05/04 01:34:46;;;;;;;1.02;0.60;;;7.90;99.90;;;;;;5041729;28;20048;-72
2022/05/04 01:37:12;;;;;;;0.40;0.40;;;7.90;99.90;;;;;;5074591;28;20036;-72
2022/05/04 01:39:38;;;;;;;3.63;0.52;;;7.90;99.90;;;;;;5057889;28;20400;-72
2022/05/04 01:42:05;;;;;;;1.45;0.43;;;7.90;99.90;;;;;;5058173;28;20040;-72
2022/05/04 01:44:33;;;;;;;4.32;0.90;;;7.90;99.90;;;;;;5058164;28;20048;-72
2022/05/04 01:46:59;;;;;;;3.20;0.77;;;7.80;99.90;;;;;;5058190;28;20426;-72
2022/05/04 01:49:25;;;;;;;1.90;0.80;;;7.80;99.90;;;;;;5057903;28;20129;-72
2022/05/04 01:51:50;;;;;;;4.57;0.73;;;7.80;99.90;;;;;;5058062;28;20488;-71
2022/05/04 01:54:16;;;;;;;1.58;0.68;;;7.60;99.90;;;;;;5057702;28;20049;-72
2022/05/04 01:56:42;;;;;;;1.33;0.70;;;7.80;99.90;;;;;;5074402;28;20162;-72
2022/05/04 01:59:08;;;;;;;0.85;0.50;;;8.30;99.90;;;;;;5074215;28;20493;-72
2022/05/04 02:01:34;;;;;;;1.02;0.60;;;7.90;99.90;;;;;;5074399;28;20044;-71
2022/05/04 02:04:00;;;;;;;1.55;0.40;;;8.00;99.90;;;;;;5074236;28;20045;-71
2022/05/04 02:06:27;;;;;;;1.52;0.95;;;7.80;99.90;;;;;;5057879;28;20685;-71
2022/05/04 02:08:52;;;;;;;0.82;0.47;;;7.70;99.90;;;;;;5041132;28;20036;-72
2022/05/04 02:11:18;;;;;;;2.85;0.77;;;7.80;99.90;;;;;;5074284;28;20399;-72
2022/05/04 02:13:44;;;;;;;0.60;0.50;;;7.80;99.90;;;;;;5057643;28;20090;-72
2022/05/04 02:16:10;;;;;;;0.68;0.32;;;7.80;99.90;;;;;;5057453;28;20052;-71
2022/05/04 02:18:36;;;;;;;1.48;0.50;;;7.80;99.90;;;;;;5057162;28;20127;-72
2022/05/04 02:21:01;;;;;;;0.80;0.65;;;7.80;99.90;;;;;;5057344;28;20037;-72
2022/05/04 02:23:27;;;;;;;10.95;0.90;;;7.80;99.90;;;;;;5073877;28;20407;-72
2022/05/04 02:25:53;;;;;;;0.57;0.55;;;7.90;99.90;;;;;;5073904;28;20037;-72
2022/05/04 02:28:19;;;;;;;0.60;0.57;;;7.90;99.90;;;;;;5057099;28;20392;-72
2022/05/04 02:30:45;;;;;;;0.63;0.55;;;8.10;99.90;;;;;;5057120;28;20131;-72
2022/05/04 02:33:13;;;;;;;0.80;0.55;;;7.80;99.90;;;;;;5073705;28;20411;-72
2022/05/04 02:38:23;;;;;;;0.40;0.40;;;7.90;99.90;;;;;;5059346;28;20537;-72
2022/05/04 02:40:48;;;;;;;4.50;0.65;;;7.60;99.90;;;;;;5056889;28;20079;-72
2022/05/04 02:43:15;;;;;;;2.90;0.60;;;7.80;99.90;;;;;;5073026;28;20097;-73
2022/05/04 02:45:40;;;;;;;0.45;0.30;;;7.80;99.90;;;;;;5056878;28;20048;-73
2022/05/04 02:48:09;;;;;;;1.90;0.82;;;7.70;99.90;;;;;;5073757;28;20407;-73
2022/05/04 02:50:36;;;;;;;3.22;0.40;;;8.10;99.90;;;;;;5073680;28;20032;-73
2022/05/04 02:53:02;;;;;;;1.85;1.25;;;7.80;99.90;;;;;;5073346;28;20047;-73
2022/05/04 02:55:28;;;;;;;0.63;0.40;;;7.80;99.90;;;;;;5073380;28;20052;-72
2022/05/04 02:57:53;;;;;;;7.25;1.20;;;7.70;99.90;;;;;;5073175;28;20041;-72
2022/05/04 03:00:19;;;;;;;0.38;0.38;;;7.70;99.90;;;;;;5073238;28;20036;-72
2022/05/04 03:02:46;;;;;;;1.60;1.08;;;7.80;99.90;;;;;;5073139;28;20119;-72
2022/05/04 03:05:14;;;;;;;3.10;0.70;;;7.80;99.90;;;;;;5056382;28;20040;-72
2022/05/04 03:07:40;;;;;;;0.28;0.28;;;7.80;99.90;;;;;;5073292;28;20066;-72
2022/05/04 03:10:07;;;;;;;3.33;0.60;;;7.70;99.90;;;;;;5056310;28;20051;-72
2022/05/04 03:12:33;;;;;;;1.33;0.68;;;7.70;99.90;;;;;;5072879;28;20128;-72
2022/05/04 03:14:59;;;;;;;1.10;0.40;;;7.70;99.90;;;;;;5073020;28;20473;-72
2022/05/04 03:17:25;;;;;;;2.05;0.40;;;7.70;99.90;;;;;;5056148;28;20424;-72
2022/05/04 03:19:52;;;;;;;1.65;0.60;;;7.70;99.90;;;;;;5056258;28;20048;-72
2022/05/04 03:22:18;;;;;;;2.13;0.60;;;8.30;99.90;;;;;;5073049;28;20070;-73
2022/05/04 03:24:43;;;;;;;1.65;0.50;;;7.70;99.90;;;;;;5072666;28;20407;-72
2022/05/04 03:27:10;;;;;;;2.03;0.43;;;7.70;99.90;;;;;;5072763;28;20052;-73
2022/05/04 03:29:35;;;;;;;1.80;0.75;;;7.70;99.90;;;;;;5072661;28;20099;-72
2022/05/04 03:32:03;;;;;;;3.80;0.70;;;7.70;99.90;;;;;;5072509;28;20439;-72
2022/05/04 03:34:29;;;;;;;3.05;0.80;;;7.70;99.90;;;;;;5072742;28;20483;-72
2022/05/04 03:36:57;;;;;;;2.13;0.85;;;8.40;99.90;;;;;;5072714;28;20411;-72
2022/05/04 03:39:23;;;;;;;2.17;0.85;;;7.80;99.90;;;;;;5056113;28;20091;-72
2022/05/04 03:41:49;;;;;;;5.25;0.60;;;7.70;99.90;;;;;;5072644;28;20361;-73
2022/05/04 03:44:16;;;;;;;2.42;0.90;;;7.80;99.90;;;;;;5072372;28;20442;-72
2022/05/04 03:46:50;;;;;;;0.93;0.52;;;7.80;99.90;;;;;;5039088;28;20032;-72
2022/05/04 03:49:18;;;;;;;0.50;0.50;;;7.80;99.90;;;;;;5072554;28;20040;-72
2022/05/04 03:51:44;;;;;;;0.60;0.60;;;8.10;99.90;;;;;;5072080;28;20048;-73
2022/05/04 03:54:10;;;;;;;4.95;1.15;;;7.60;99.90;;;;;;5072159;28;20500;-72
2022/05/04 03:56:37;;;;;;;0.40;0.38;;;7.80;99.90;;;;;;5071730;28;20438;-73
2022/05/04 03:59:04;;;;;;;0.85;0.57;;;7.60;99.90;;;;;;5038859;28;20484;-73
2022/05/04 04:01:30;;;;;;;1.60;1.02;;;7.60;99.90;;;;;;5055589;28;20040;-72
2022/05/04 04:03:56;;;;;;;0.75;0.65;;;8.30;99.90;;;;;;5072009;28;20033;-73
2022/05/04 04:06:22;;;;;;;1.02;0.57;;;8.10;99.90;;;;;;5055315;28;20178;-73
2022/05/04 04:08:51;;;;;;;2.08;1.13;;;7.60;99.90;;;;;;5055126;28;20040;-72
2022/05/04 04:11:18;;;;;;;1.50;0.70;;;7.60;99.90;;;;;;5055180;28;20052;-73
2022/05/04 04:13:44;;;;;;;4.78;1.05;;;7.60;99.90;;;;;;5071791;28;20049;-73
2022/05/04 04:16:09;;;;;;;8.52;0.93;;;7.60;99.90;;;;;;5072094;28;20055;-73
2022/05/04 04:18:35;;;;;;;0.77;0.68;;;7.90;99.90;;;;;;5071482;28;20088;-72
2022/05/04 04:23:45;;;;;;;0.30;0.30;;;7.90;99.90;;;;;;5071701;28;20048;-73
2022/05/04 04:26:11;;;;;;;1.48;0.57;;;7.80;99.90;;;;;;5038691;28;20045;-72
2022/05/04 04:28:38;;;;;;;4.30;0.73;;;7.60;99.90;;;;;;5071915;28;20044;-73
2022/05/04 04:31:06;;;;;;;0.75;0.60;;;7.60;99.90;;;;;;5054910;28;20082;-73
2022/05/04 04:33:32;;;;;;;0.57;0.47;;;7.90;99.90;;;;;;5071601;28;20420;-73
2022/05/04 04:35:59;;;;;;;0.85;0.73;;;7.70;99.90;;;;;;5054869;28;20048;-73
2022/05/04 04:38:25;;;;;;;0.60;0.50;;;8.00;99.90;;;;;;5071527;28;20052;-73
2022/05/04 04:40:51;;;;;;;0.60;0.52;;;7.90;99.90;;;;;;5055107;28;20037;-73
2022/05/04 04:43:17;;;;;;;1.48;0.57;;;8.50;99.90;;;;;;5055131;28;20036;-73
2022/05/04 04:45:47;;;;;;;5.45;0.95;;;8.30;99.90;;;;;;5071815;28;20140;-73
2022/05/04 04:48:16;;;;;;;1.35;0.82;;;8.10;99.90;;;;;;5071730;28;20431;-73
2022/05/04 04:50:42;;;;;;;3.38;0.95;;;7.80;99.90;;;;;;5054777;28;20079;-73
2022/05/04 04:53:08;;;;;;;2.67;1.27;;;7.80;99.90;;;;;;5071440;28;20047;-72
2022/05/04 04:55:34;;;;;;;0.60;0.60;;;8.00;99.90;;;;;;5071430;28;20044;-72
2022/05/04 04:58:00;;;;;;;4.40;0.82;;;7.80;99.90;;;;;;5054770;28;20036;-72
2022/05/04 05:00:26;;;;;;;3.03;0.80;;;7.70;99.90;;;;;;5071563;28;20048;-72
2022/05/04 05:02:52;;;;;;;2.15;0.88;;;8.40;99.90;;;;;;5071316;28;20041;-72
2022/05/04 05:05:18;;;;;;;0.73;0.55;;;8.10;99.90;;;;;;5071645;28;20483;-72
2022/05/04 05:07:44;;;;;;;1.23;0.80;;;8.50;99.90;;;;;;5074658;28;20066;-73
2022/05/04 05:10:09;;;;;;;1.02;0.75;;;8.20;99.90;;;;;;5075264;28;20098;-71
2022/05/04 05:12:35;;;;;;;1.65;0.90;;;7.80;99.90;;;;;;5058500;28;20046;-72
2022/05/04 05:17:45;;;;;;;0.32;0.30;;;8.20;99.90;;;;;;5074860;28;20111;-71
2022/05/04 05:20:12;;;;;;;3.45;1.10;;;8.40;99.90;;;;;;5075045;28;20036;-71
2022/05/04 05:22:37;;;;;;;0.55;0.43;;;8.40;99.90;;;;;;5074962;28;20044;-72
2022/05/04 05:25:04;;;;;;;3.30;0.40;;;8.30;99.90;;;;;;5074922;28;20423;-71
2022/05/04 05:27:31;;;;;;;2.67;0.65;;;8.10;99.90;;;;;;5074821;28;20086;-72
2022/05/04 05:29:56;;;;;;;3.38;0.88;;;8.20;99.90;;;;;;5058214;28;20470;-73
2022/05/04 05:32:22;;;;;;;3.72;0.77;;;8.60;99.90;;;;;;5058136;28;20072;-72
2022/05/04 05:34:48;;;;;;;2.92;1.08;;;8.40;99.90;;;;;;5074592;28;20040;-72
2022/05/04 05:37:14;;;;;;;3.20;0.55;;;8.80;99.90;;;;;;5058050;28;20032;-72
2022/05/04 05:39:40;;;;;;;3.67;0.65;;;8.10;99.90;;;;;;5074585;28;20044;-72
2022/05/04 05:42:07;;;;;;;1.80;0.82;;;8.50;99.90;;;;;;5074637;28;20062;-72
2022/05/04 05:44:33;;;;;;;2.70;0.60;;;8.20;99.90;;;;;;5074503;28;20036;-72
2022/05/04 05:46:59;;;;;;;0.82;0.47;;;8.50;99.90;;;;;;5057901;28;20102;-72
2022/05/04 05:49:25;;;;;;;1.27;0.60;;;8.90;99.90;;;;;;5074515;28;20117;-72
2022/05/04 05:51:51;;;;;;;1.13;0.60;;;8.30;99.90;;;;;;5074627;28;20048;-72
2022/05/04 05:54:17;;;;;;;0.40;0.40;;;8.30;99.90;;;;;;5057739;28;20076;-72
2022/05/04 05:56:43;;;;;;;2.03;0.73;;;8.50;99.90;;;;;;5057633;28;20037;-70
2022/05/04 05:59:08;;;;;;;2.53;0.77;;;9.10;99.90;;;;;;5074282;28;20423;-71
2022/05/04 06:01:34;;;;;;;1.83;0.85;;;9.10;99.90;;;;;;5074505;28;20090;-70
2022/05/04 06:04:00;;;;;;;0.65;0.65;;;8.50;99.90;;;;;;5091123;28;20037;-72
2022/05/04 06:06:25;;;;;;;2.63;0.63;;;9.30;99.90;;;;;;5057448;28;20089;-71
2022/05/04 06:08:51;;;;;;;1.75;0.80;;;9.10;99.90;;;;;;5057467;28;20044;-70
2022/05/04 06:11:17;;;;;;;2.90;0.80;;;8.60;99.90;;;;;;5074122;28;20389;-70
2022/05/04 06:13:42;;;;;;;2.75;0.77;;;8.80;99.90;;;;;;5074051;28;20044;-72
2022/05/04 06:16:08;;;;;;;0.63;0.47;;;9.10;99.90;;;;;;5074071;28;20423;-72
2022/05/04 06:18:34;;;;;;;4.97;1.23;;;8.90;99.90;;;;;;5072698;28;20412;-72
2022/05/04 06:21:00;;;;;;;0.43;0.43;;;9.30;99.90;;;;;;5073799;28;20107;-72
2022/05/04 06:23:25;;;;;;;2.42;0.60;;;9.40;99.90;;;;;;5057295;28;20385;-71
2022/05/04 06:25:51;;;;;;;1.00;0.47;;;8.90;99.90;;;;;;5073702;28;20047;-71
2022/05/04 06:28:17;;;;;;;0.68;0.40;;;9.40;99.90;;;;;;5073564;28;20063;-71
2022/05/04 06:36:11;;;;;;;0.28;0.28;;;9.60;99.90;;;;;;5059254;28;20044;-71
2022/05/04 06:38:37;;;;;;;1.05;0.80;;;9.50;99.90;;;;;;5056686;28;20507;-69
2022/05/04 06:41:05;;;;;;;4.22;0.43;;;9.80;99.90;;;;;;5074659;28;20036;-71
2022/05/04 06:43:32;;;;;;;0.55;0.40;;;9.90;99.90;;;;;;5073345;28;20056;-71
2022/05/04 06:45:58;;;;;;;1.98;0.60;;;9.60;99.90;;;;;;5073382;28;20160;-70
2022/05/04 06:48:24;;;;;;;0.30;0.30;;;9.80;99.90;;;;;;5056772;28;20070;-71
2022/05/04 06:50:50;;;;;;;2.63;1.25;;;10.10;99.90;;;;;;5073411;28;20090;-72
2022/05/04 06:53:15;;;;;;;0.85;0.57;;;10.10;99.90;;;;;;5056686;28;20044;-71
2022/05/04 06:55:41;;;;;;;0.63;0.40;;;10.30;99.90;;;;;;5073276;28;20518;-71
2022/05/04 06:58:07;;;;;;;0.55;0.50;;;9.90;99.90;;;;;;5073067;28;20045;-72
2022/05/04 07:00:33;;;;;;;0.98;0.52;;;10.30;99.90;;;;;;5073030;28;20377;-71
2022/05/04 07:02:58;;;;;;;1.98;0.52;;;10.40;99.90;;;;;;5056727;28;20131;-71
2022/05/04 07:05:24;;;;;;;0.57;0.45;;;9.90;99.90;;;;;;5073043;28;20097;-71
2022/05/04 07:07:50;;;;;;;0.63;0.60;;;9.90;99.90;;;;;;5072970;28;20045;-71
2022/05/04 07:10:15;;;;;;;2.55;0.95;;;9.80;99.90;;;;;;5072967;28;20045;-70
2022/05/04 07:12:41;;;;;;;3.92;0.52;;;9.80;99.90;;;;;;5056175;28;20146;-70
2022/05/04 07:15:07;;;;;;;1.45;0.40;;;9.80;99.90;;;;;;5072937;28;20043;-71
2022/05/04 07:17:33;;;;;;;0.60;0.43;;;10.00;99.90;;;;;;5055832;28;20056;-72
2022/05/04 07:19:59;;;;;;;2.13;0.60;;;10.10;99.90;;;;;;5055918;28;20132;-72
2022/05/04 07:22:24;;;;;;;0.77;0.40;;;9.90;99.90;;;;;;5072927;28;20036;-71
2022/05/04 07:24:50;;;;;;;2.17;0.82;;;10.00;99.90;;;;;;5056265;28;20036;-72
2022/05/04 07:27:17;;;;;;;2.10;1.00;;;10.10;99.90;;;;;;5055986;28;20044;-71
2022/05/04 07:29:44;;;;;;;2.53;0.55;;;9.80;99.90;;;;;;5055857;28;20046;-71
2022/05/04 07:32:10;;;;;;;1.98;0.50;;;10.40;99.90;;;;;;5072473;28;20131;-70
2022/05/04 07:34:37;;;;;;;0.60;0.47;;;10.40;99.90;;;;;;5056037;28;20086;-70
2022/05/04 07:37:03;;;;;;;4.07;0.43;;;10.30;99.90;;;;;;5072997;28;20049;-72
2022/05/04 07:42:26;;;;;;;1.00;0.60;;;10.70;99.90;;;;;;5072269;28;20044;-71
2022/05/04 07:45:04;;;;;;;2.10;0.60;;;10.80;99.90;;;;;;5072583;28;20043;-71
2022/05/04 07:47:32;;;;;;;2.97;0.50;;;11.60;99.90;;;;;;5055581;28;20048;-71
2022/05/04 07:49:58;;;;;;;2.17;0.80;;;11.50;99.90;;;;;;5072087;28;20075;-71
2022/05/04 07:52:25;;;;;;;0.40;0.40;;;11.60;99.90;;;;;;5055438;28;20043;-70
2022/05/04 07:54:51;;;;;;;2.65;1.27;;;11.70;99.90;;;;;;5072077;28;20064;-70
2022/05/04 07:57:16;;;;;;;3.58;0.82;;;11.60;99.90;;;;;;5072020;28;20051;-72
2022/05/04 07:59:42;;;;;;;0.85;0.60;;;11.50;99.90;;;;;;5071979;28;20037;-71
2022/05/04 08:04:53;;;;;;;0.50;0.45;;;11.10;99.90;;;;;;5057803;28;20083;-73
2022/05/04 08:07:19;;;;;;;1.05;0.50;;;11.10;99.90;;;;;;5055290;28;20037;-71
2022/05/04 08:09:45;;;;;;;1.38;0.88;;;11.40;99.90;;;;;;5055341;28;20399;-72
2022/05/04 08:12:12;;;;;;;3.05;1.13;;;11.00;99.90;;;;;;5055170;28;20044;-71
2022/05/04 08:14:41;;;;;;;1.80;0.80;;;10.80;99.90;;;;;;5055101;28;20037;-72
2022/05/04 08:17:07;;;;;;;1.83;1.00;;;10.80;99.90;;;;;;5071841;28;20561;-71
2022/05/04 08:19:34;;;;;;;1.98;1.13;;;10.60;99.90;;;;;;5055040;28;20055;-70
2022/05/04 08:22:00;;;;;;;2.50;0.63;;;10.90;99.90;;;;;;5071871;28;20112;-71
2022/05/04 08:24:26;;;;;;;4.75;0.73;;;10.70;99.90;;;;;;5071664;28;20177;-71
2022/05/04 08:26:52;;;;;;;1.83;0.60;;;10.80;99.90;;;;;;5055330;28;20048;-71
2022/05/04 08:29:18;;;;;;;0.77;0.55;;;10.70;99.90;;;;;;5071855;28;20434;-71
2022/05/04 08:31:44;;;;;;;0.82;0.70;;;10.70;99.90;;;;;;5055148;28;20033;-71
2022/05/04 08:34:09;;;;;;;3.47;0.55;;;11.00;99.90;;;;;;5071495;28;20051;-71
2022/05/04 08:36:37;;;;;;;8.98;0.63;;;11.40;99.90;;;;;;5071745;28;20047;-71
2022/05/04 08:39:05;;;;;;;9.15;1.23;;;11.70;99.90;;;;;;5071496;28;20050;-71
2022/05/04 08:41:31;;;;;;;1.50;0.73;;;11.90;99.90;;;;;;5070902;28;20044;-71
2022/05/04 08:43:58;;;;;;;3.15;0.73;;;11.90;99.90;;;;;;5071450;28;20046;-70
2022/05/04 08:46:26;;;;;;;0.80;0.50;;;12.00;99.90;;;;;;5071631;28;20387;-71
2022/05/04 08:48:53;;;;;;;0.75;0.55;;;12.00;99.90;;;;;;5054702;28;20131;-70
2022/05/04 08:51:19;;;;;;;1.80;0.88;;;12.30;99.90;;;;;;5071345;28;20040;-71
2022/05/04 08:53:46;;;;;;;3.22;0.93;;;12.50;99.90;;;;;;5054695;28;20052;-73
2022/05/04 08:56:14;;;;;;;2.35;0.65;;;12.80;99.90;;;;;;5071397;28;20072;-71
2022/05/04 08:58:39;;;;;;;0.77;0.50;;;12.80;99.90;;;;;;5104852;28;20353;-71
2022/05/04 09:01:05;;;;;;;0.88;0.60;;;12.90;99.90;;;;;;5071349;28;20124;-71
2022/05/04 09:03:35;;;;;;;0.77;0.77;;;;;;;;;;5071271;28;20464;-71
2022/05/04 09:06:00;;;;;;;0.50;0.47;;;13.10;99.90;;;;;;5071178;28;20033;-71
2022/05/04 09:08:26;;;;;;;2.20;0.77;;;13.00;99.90;;;;;;5054625;28;20066;-70
2022/05/04 09:10:52;;;;;;;2.50;0.40;;;12.90;99.90;;;;;;5071168;28;20036;-70
2022/05/04 09:13:18;;;;;;;2.92;0.70;;;13.00;99.90;;;;;;5071431;28;20040;-70
2022/05/04 09:15:44;;;;;;;2.70;0.95;;;12.70;99.90;;;;;;5071125;28;20040;-71
2022/05/04 09:18:13;;;;;;;2.40;0.85;;;12.60;99.90;;;;;;5054445;28;20408;-71
2022/05/04 09:20:47;;;;;;;0.65;0.55;;;12.80;99.90;;;;;;5071057;28;20045;-70
2022/05/04 09:23:16;;;;;;;4.97;0.98;;;13.00;99.90;;;;;;5054487;28;20504;-71
2022/05/04 09:25:42;;;;;;;1.98;0.88;;;13.00;99.90;;;;;;5070977;28;20040;-71
2022/05/04 09:28:12;;;;;;;1.17;0.82;;;12.90;99.90;;;;;;5070988;28;20045;-71
2022/05/04 09:30:46;;;;;;;;;;;13.10;99.90;;;;;;5054677;28;20482;-71
2022/05/04 09:33:17;;;;;;;4.93;0.57;;;13.30;99.90;;;;;;5054313;28;19916;-71
2022/05/04 09:35:42;;;;;;;1.30;0.75;;;13.20;99.90;;;;;;5071183;28;20416;-71
2022/05/04 09:46:37;;;;;;;1.45;0.57;;;13.10;99.20;;;;;;5070901;28;20114;-71
2022/05/04 09:49:09;;;;;;;1.98;0.80;;;13.10;99.90;;;;;;5054438;28;20094;-71
2022/05/04 09:51:36;;;;;;;2.85;0.60;;;13.20;99.90;;;;;;5070813;28;20083;-71
2022/05/04 09:54:17;;;;;;;0.85;0.65;;;13.20;99.90;;;;;;5072453;28;20040;-71
2022/05/04 09:56:48;;;;;;;0.45;0.45;;;13.20;99.90;;;;;;5074604;28;20044;-73
2022/05/04 09:59:16;;;;;;;1.00;0.82;;;13.00;99.10;;;;;;5074519;28;20044;-71
2022/05/04 10:01:43;;;;;;;3.20;0.50;;;13.30;99.90;;;;;;5074123;28;20067;-70
2022/05/04 10:04:10;;;;;;;0.35;0.35;;;13.40;99.90;;;;;;5074027;28;20033;-70
2022/05/04 10:06:36;;;;;;;1.13;0.65;;;13.20;99.60;;;;;;5074036;28;20166;-70
2022/05/04 10:09:04;;;;;;;0.60;0.50;;;13.50;99.90;;;;;;5074043;28;20036;-71
2022/05/04 10:11:32;;;;;;;1.15;0.75;;;13.80;99.90;;;;;;5073957;28;20048;-71
2022/05/04 10:14:05;;;;;;;0.60;0.55;;;13.50;99.90;;;;;;5073844;28;20105;-72
2022/05/04 10:16:45;;;;;;;1.17;0.85;;;13.60;99.90;;;;;;5074181;28;20056;-72
2022/05/04 10:19:20;;;;;;;1.00;0.57;;;13.10;99.90;;;;;;5056995;28;20052;-72
2022/05/04 10:21:50;;;;;;;1.15;0.82;;;13.20;99.90;;;;;;5057379;28;20048;-71
2022/05/04 10:24:18;;;;;;;0.55;0.40;;;13.40;99.90;;;;;;5073767;28;20396;-72
2022/05/04 10:26:45;;;;;;;1.27;0.60;;;13.50;99.90;;;;;;5057320;28;20062;-72
2022/05/04 10:32:08;;;;;;;7.57;0.95;;;13.70;99.80;;;;;;5073566;28;20057;-71
2022/05/04 10:34:40;;;;;;;5.70;1.10;;;13.50;99.80;;;;;;5073806;28;20040;-71
2022/05/04 10:37:05;;;;;;;1.42;0.63;;;13.50;99.60;;;;;;5073477;28;20044;-71
2022/05/04 10:39:31;;;;;;;1.02;0.80;;;13.20;99.20;;;;;;5056726;28;20090;-72
2022/05/04 10:41:58;;;;;;;2.38;0.90;;;13.10;99.30;;;;;;5073358;28;20480;-72
2022/05/04 10:44:51;;;;;;;1.58;0.55;;;13.10;99.70;;;;;;5073582;28;20047;-74
2022/05/04 10:47:18;;;;;;;2.08;0.88;;;13.50;99.90;;;;;;5056642;28;20036;-75
2022/05/04 10:49:44;;;;;;;3.45;0.70;;;14.00;99.90;;;;;;5073491;28;20040;-75
2022/05/04 10:52:10;;;;;;;1.33;0.60;;;13.70;99.90;;;;;;5056902;28;20040;-74
2022/05/04 10:54:47;;;;;;;3.35;0.70;;;13.80;99.90;;;;;;5073192;28;20187;-71
2022/05/04 10:57:14;;;;;;;0.50;0.50;;;14.00;99.90;;;;;;5073174;28;20082;-72
2022/05/04 10:59:40;;;;;;;1.80;0.85;;;13.70;99.90;;;;;;5073008;28;20044;-71
2022/05/04 11:02:11;;;;;;;1.10;0.55;;;13.50;99.60;;;;;;5073303;28;20479;-71
2022/05/04 11:04:39;;;;;;;2.33;0.80;;;13.60;99.90;;;;;;5072530;28;20127;-72
2022/05/04 11:07:06;;;;;;;1.52;0.80;;;13.40;99.90;;;;;;5073230;28;20040;-71
2022/05/04 11:09:42;;;;;;;0.57;0.50;;;13.50;99.90;;;;;;5072968;28;20044;-70
2022/05/04 11:12:10;;;;;;;2.65;0.85;;;13.90;99.90;;;;;;5072815;28;20044;-70
2022/05/04 11:14:36;;;;;;;1.55;0.55;;;13.60;99.90;;;;;;5073041;28;20047;-73
2022/05/04 11:17:10;;;;;;;2.47;0.93;;;13.60;99.80;;;;;;5072599;28;20041;-74
2022/05/04 11:19:40;;;;;;;1.95;0.90;;;13.70;98.80;;;;;;5072648;28;20037;-74
2022/05/04 11:22:08;;;;;;;2.35;0.90;;;13.90;99.70;;;;;;5055990;28;20052;-73
2022/05/04 11:24:34;;;;;;;1.63;0.57;;;13.50;99.90;;;;;;5072527;28;20036;-73
2022/05/04 11:26:59;;;;;;;2.10;1.08;;;13.60;99.90;;;;;;5072418;28;20079;-72
2022/05/04 11:29:28;;;;;;;3.65;1.38;;;13.60;99.60;;;;;;5055886;28;20040;-73
2022/05/04 11:31:54;;;;;;;8.95;0.93;;;13.90;99.90;;;;;;5055744;28;20067;-73
2022/05/04 11:34:25;;;;;;;2.22;0.60;;;13.90;99.70;;;;;;5072687;28;20036;-72
2022/05/04 11:36:53;;;;;;;1.17;0.70;;;13.90;99.50;;;;;;5072217;28;20044;-71
2022/05/04 11:39:21;;;;;;;1.65;0.70;;;13.60;99.90;;;;;;5072044;28;20048;-72
2022/05/04 11:41:51;;;;;;;0.98;0.47;;;14.10;99.90;;;;;;5072077;28;20040;-72
2022/05/04 11:44:21;;;;;;;4.90;1.27;;;13.80;99.90;;;;;;5072285;28;20576;-72
2022/05/04 11:46:50;;;;;;;1.50;0.70;;;14.50;99.90;;;;;;5055442;28;20040;-72
2022/05/04 11:49:15;;;;;;;1.98;0.65;;;13.90;99.30;;;;;;5072361;28;20044;-73
2022/05/04 11:51:42;;;;;;;5.97;0.68;;;14.10;99.30;;;;;;5072006;28;20094;-72
2022/05/04 11:54:07;;;;;;;0.50;0.50;;;14.10;99.80;;;;;;5071918;28;20119;-71
2022/05/04 11:56:34;;;;;;;3.45;0.80;;;14.30;99.20;;;;;;5071914;28;20072;-72
2022/05/04 11:59:00;;;;;;;4.22;0.75;;;14.50;98.80;;;;;;5055126;28;20045;-70
2022/05/04 12:01:26;;;;;;;4.78;0.82;;;14.60;98.70;;;;;;5055145;28;20036;-69
2022/05/04 12:03:53;;;;;;;1.15;0.75;;;14.40;98.20;;;;;;5038504;28;20575;-71
2022/05/04 12:06:19;;;;;;;1.13;0.70;;;14.30;98.00;;;;;;5071835;28;20044;-71
2022/05/04 12:08:46;;;;;;;1.98;1.05;;;14.30;98.60;;;;;;5071868;28;20044;-72
2022/05/04 12:11:11;;;;;;;6.82;1.42;;;14.30;98.40;;;;;;5072138;28;20479;-71
2022/05/04 12:13:39;;;;;;;2.45;0.75;;;14.30;97.80;;;;;;5071737;28;20048;-72
2022/05/04 12:16:07;;;;;;;2.13;0.75;;;14.20;97.80;;;;;;5071219;28;20123;-71
2022/05/04 12:18:35;;;;;;;5.50;0.98;;;14.20;97.90;;;;;;5054919;28;20056;-71
2022/05/04 12:21:11;;;;;;;2.03;0.90;;;13.90;97.60;;;;;;5073176;28;20044;-69
2022/05/04 12:23:39;;;;;;;1.23;0.80;;;13.90;98.20;;;;;;5038086;28;20032;-71
2022/05/04 12:26:06;;;;;;;6.65;0.80;;;14.10;98.80;;;;;;5071434;28;20074;-73
2022/05/04 12:28:33;;;;;;;1.05;0.70;;;14.00;97.40;;;;;;5054771;28;20051;-73
2022/05/04 12:33:45;;;;;;;5.10;1.30;;;14.60;98.80;;;;;;5071416;28;20071;-72
2022/05/04 12:36:12;;;;;;;2.22;1.30;;;14.50;98.40;;;;;;5071382;28;20044;-74
2022/05/04 12:38:39;;;;;;;1.23;0.85;;;14.60;98.70;;;;;;5071473;28;20048;-72
2022/05/04 12:41:07;;;;;;;2.30;0.95;;;14.70;98.70;;;;;;5071374;28;20408;-73
2022/05/04 12:43:35;;;;;;;0.88;0.68;;;14.80;98.30;;;;;;5071578;28;20395;-71
2022/05/04 12:46:02;;;;;;;3.50;1.10;;;14.80;98.00;;;;;;5071328;28;20041;-72
2022/05/04 12:48:28;;;;;;;4.22;1.10;;;14.60;98.00;;;;;;5105109;28;20051;-73
2022/05/04 12:50:58;;;;;;;1.48;0.75;;;14.60;98.60;;;;;;5054945;28;20036;-72
2022/05/04 12:53:25;;;;;;;9.83;1.03;;;14.40;97.70;;;;;;5071287;28;20044;-73
2022/05/04 12:58:36;;;;;;;3.97;0.90;;;14.60;98.20;;;;;;5071121;28;20055;-72
2022/05/04 13:01:03;;;;;;;2.78;0.80;;;14.70;97.90;;;;;;5071241;28;20044;-73
2022/05/04 13:03:29;;;;;;;1.77;1.08;;;14.70;98.10;;;;;;5054567;28;20044;-72
2022/05/04 13:05:55;;;;;;;1.15;0.68;;;14.90;97.70;;;;;;5071184;28;20504;-71
2022/05/04 13:08:20;;;;;;;0.93;0.77;;;14.90;98.00;;;;;;5071319;28;20040;-72
2022/05/04 13:10:48;;;;;;;2.13;0.82;;;15.00;97.90;;;;;;5071070;28;20131;-73
2022/05/04 13:13:16;;;;;;;3.15;1.10;;;14.90;96.80;;;;;;5071190;28;20032;-71
2022/05/04 13:15:42;;;;;;;2.05;0.95;;;15.00;97.20;;;;;;5070856;28;20467;-72
2022/05/04 13:18:08;;;;;;;4.03;1.10;;;15.00;97.30;;;;;;5071026;28;20135;-72
2022/05/04 13:20:34;;;;;;;1.83;0.80;;;15.00;97.90;;;;;;5071081;28;20044;-73
2022/05/04 13:23:00;;;;;;;3.10;1.08;;;15.30;97.90;;;;;;5071047;28;20043;-74
2022/05/04 13:25:26;;;;;;;3.97;0.90;;;15.40;98.20;;;;;;5071228;28;20048;-78
2022/05/04 13:27:51;;;;;;;2.08;1.08;;;15.00;97.70;;;;;;5072520;28;20059;-74
2022/05/04 13:30:17;;;;;;;3.78;1.27;;;15.20;97.80;;;;;;5074694;28;20032;-73